Flight Track Log - Related Links

Times and Time Zones

All times are in EDT time to prevent confusion due to time zone crossing. See the SWA862 flight status page for this flight to view local times or setup timezone preferences in your user account.

Time Position Orientation Groundspeed Altitude Reporting Facility
EDT Latitude Longitude Course Direction KTS MPH feet Rate Location/Type
Sun 18:06:43 27.9500 -82.5500 North 171 197 1,600  Level Tampa TRACON
Sun 18:07:20 27.9167 -82.5667 204° Southwest 216 249 2,900 2,660 Climbing Tampa TRACON
Sun 18:08:20 27.8667 -82.6000 211° Southwest 242 278 5,900 3,400 Climbing Tampa TRACON
Sun 18:09:20 27.8667 -82.7000 270° West 290 334 9,700 2,232 Climbing Tampa TRACON
Sun 18:11:04 27.9828 -82.7186 352° North 322 371 12,000 1,720 Climbing Jacksonville Center
Sun 18:12:00 28.6050 -82.5833 North  Level FlightAware Approximate
Sun 18:12:04 28.0808 -82.6833 18° North 344 396 14,400  Level Jacksonville Center
Sun 18:13:04 28.1831 -82.6478 17° North 359 413 17,900 2,950 Climbing Jacksonville Center
Sun 18:14:04 28.2914 -82.6097 17° North 378 435 20,300 2,600 Climbing Jacksonville Center
Sun 18:15:04 28.4042 -82.5811 13° North 399 459 23,100 2,650 Climbing Jacksonville Center
Sun 18:16:04 28.5211 -82.5853 358° North 407 468 25,600 2,200 Climbing Jacksonville Center
Sun 18:17:04 28.6400 -82.5897 358° North 418 481 27,500 1,950 Climbing Jacksonville Center
Sun 18:18:04 28.7736 -82.6014 356° North 426 490 29,500 1,900 Climbing Jacksonville Center
Sun 18:19:04 28.8989 -82.6197 353° North 438 504 31,300 1,950 Climbing Jacksonville Center
Sun 18:20:04 29.0219 -82.6361 353° North 444 511 33,400 1,950 Climbing Jacksonville Center
Sun 18:21:04 29.1431 -82.6547 352° North 444 511 35,200 1,300 Climbing Jacksonville Center
Sun 18:22:04 29.2642 -82.6711 353° North 444 511 36,000 400 Climbing Jacksonville Center
Sun 18:23:04 29.3833 -82.6875 353° North 439 505 36,000  Level Jacksonville Center
Sun 18:24:04 29.5044 -82.6922 358° North 434 499 36,000 650 Level Jacksonville Center
Sun 18:25:04 29.6169 -82.6942 359° North 442 509 37,300 1,000 Climbing Jacksonville Center
Sun 18:26:04 29.7403 -82.6942 360° North 442 509 38,000 350 Climbing Jacksonville Center
Sun 18:27:04 29.8633 -82.6939 360° North 437 503 38,000  Level Jacksonville Center
Sun 18:28:04 29.9867 -82.6911 North 437 503 38,000 250 Level Jacksonville Center
Sun 18:29:04 30.1097 -82.6883 North 437 503 38,500 500 Climbing Jacksonville Center
Sun 18:30:04 30.2372 -82.6858 North 442 509 39,000 250 Climbing Jacksonville Center
Sun 18:31:04 30.3603 -82.6856 360° North 442 509 39,000  Level Jacksonville Center
Sun 18:32:04 30.4856 -82.6828 North 442 509 39,000  Level Jacksonville Center
Sun 18:33:04 30.6067 -82.6417 16° North 442 509 39,000  Level Jacksonville Center
Sun 18:34:04 30.7275 -82.5808 23° Northeast 452 520 39,000  Level Jacksonville Center
Sun 18:35:04 30.8464 -82.5222 23° Northeast 457 526 39,000  Level Jacksonville Center
Sun 18:36:04 30.9653 -82.4636 23° Northeast 462 532 39,000  Level Jacksonville Center
Sun 18:37:04 31.0842 -82.4050 23° Northeast 462 532 39,000  Level Jacksonville Center
Sun 18:38:04 31.2028 -82.3486 22° Northeast 462 532 39,000  Level Jacksonville Center
Sun 18:39:04 31.3258 -82.2919 21° North 462 532 39,000  Level Jacksonville Center
Sun 18:40:04 31.4444 -82.2325 23° Northeast 462 532 39,000  Level Jacksonville Center
Sun 18:41:04 31.5675 -82.1733 22° Northeast 462 532 39,000  Level Jacksonville Center
Sun 18:42:04 31.6839 -82.1114 24° Northeast 462 532 39,000  Level Jacksonville Center
Sun 18:43:04 31.8172 -82.0467 22° Northeast 456 525 39,000  Level Jacksonville Center
Sun 18:44:04 31.9358 -81.9869 23° Northeast 456 525 39,000  Level Jacksonville Center
Sun 18:45:04 32.0461 -81.9342 22° Northeast 461 531 39,000  Level Jacksonville Center
Sun 18:46:04 32.1792 -81.8739 21° North 461 531 39,000  Level Jacksonville Center
Sun 18:47:04 32.3019 -81.8161 22° Northeast 466 536 39,000  Level Jacksonville Center
Sun 18:48:04 32.4078 -81.7656 22° Northeast 460 529 39,000  Level Jacksonville Center
Sun 18:49:04 32.5408 -81.7022 22° Northeast 460 529 39,000  Level Jacksonville Center
Sun 18:50:04 32.6469 -81.6492 23° Northeast 453 521 39,000  Level Jacksonville Center
Sun 18:51:04 32.7653 -81.5808 26° Northeast 453 521 39,000  Level Jacksonville Center
Sun 18:52:04 32.8728 -81.5000 32° Northeast 453 521 39,000  Level Jacksonville Center
Sun 18:53:04 32.9867 -81.4167 32° Northeast 463 533 39,000  Level Jacksonville Center
Sun 18:54:04 33.1006 -81.3328 32° Northeast 469 540 39,000  Level Jacksonville Center
Sun 18:55:04 33.2122 -81.2514 31° Northeast 469 540 39,000  Level Jacksonville Center
Sun 18:56:04 33.3239 -81.1675 32° Northeast 469 540 39,000  Level Jacksonville Center
Sun 18:57:04 33.4353 -81.0856 32° Northeast 469 540 39,000  Level Jacksonville Center
Sun 18:58:04 33.5489 -81.0036 31° Northeast 469 540 39,000  Level Jacksonville Center
Sun 18:59:04 33.6583 -80.9214 32° Northeast 463 533 39,000  Level Jacksonville Center
Sun 19:00:04 33.7697 -80.8389 32° Northeast 463 533 39,000 -300 Level Jacksonville Center
Sun 19:01:04 33.8789 -80.7564 32° Northeast 463 533 38,400 -1,500 Descending Jacksonville Center
Sun 19:02:04 33.9858 -80.6736 33° Northeast 463 533 36,000 -2,700 Descending Jacksonville Center
Sun 19:03:04 34.0931 -80.5931 32° Northeast 463 533 33,000 -2,850 Descending Jacksonville Center
Sun 19:04:04 34.2019 -80.5097 32° Northeast 463 533 30,300 -2,265 Descending Jacksonville Center
Sun 19:05:35 34.3614 -80.3894 32° Northeast 427 491 27,300 -1,828 Descending Washington Center
Sun 19:06:35 34.4733 -80.3028 33° Northeast 427 491 25,700 -1,850 Descending Washington Center
Sun 19:07:35 34.5722 -80.2253 33° Northeast 432 497 23,600 -1,350 Descending Washington Center
Sun 19:08:35 34.6692 -80.1500 33° Northeast 425 489 23,000 -300 Descending Washington Center
Sun 19:09:35 34.7658 -80.0769 32° Northeast 415 478 23,000  Level Washington Center
Sun 19:10:35 34.8567 -79.9858 39° Northeast 415 478 23,000  Level Washington Center
Sun 19:11:35 34.9417 -79.8917 42° Northeast 415 478 23,000  Level Washington Center
Sun 19:12:35 35.0283 -79.7975 42° Northeast 410 472 23,000 -150 Level Washington Center
Sun 19:13:35 35.1153 -79.7028 42° Northeast 410 472 22,700 -1,200 Descending Washington Center
Sun 19:14:35 35.1978 -79.6081 43° Northeast 405 466 20,600 -1,800 Descending Washington Center
Sun 19:15:35 35.2792 -79.5433 33° Northeast 400 460 19,100 -1,806 Descending Washington Center
Sun 19:16:08 35.3367 -79.5081 27° Northeast 377 434 17,800 -2,100 Descending Washington Center
Sun 19:16:35 35.3794 -79.4744 33° Northeast 379 436 17,000 -1,279 Descending Washington Center
Sun 19:17:09 35.4306 -79.4436 26° Northeast 363 418 16,500 -1,000 Descending Washington Center
Sun 19:17:35 35.4647 -79.4172 32° Northeast 357 411 16,000 -1,300 Descending Washington Center
Sun 19:18:09 35.5097 -79.3811 33° Northeast 335 386 15,200 -1,400 Descending Washington Center
Sun 19:18:35 35.5361 -79.3417 51° Northeast 337 388 14,600 -1,574 Descending Washington Center
Sun 19:19:10 35.5669 -79.2844 56° Northeast 343 395 13,600 -1,500 Descending Washington Center
Sun 19:19:35 35.5844 -79.2569 52° Northeast 331 381 13,100 -1,475 Descending Washington Center
Sun 19:20:11 35.6242 -79.1925 53° Northeast 340 391 12,100 -1,600 Descending Washington Center
Sun 19:20:35 35.6483 -79.1525 53° Northeast 342 394 11,500 -1,545 Descending Washington Center
Sun 19:21:17 35.6811 -79.0953 55° Northeast 330 380 10,400 -1,400 Descending Washington Center
Sun 19:21:35 35.6944 -79.0728 54° Northeast 327 376 10,100 -1,574 Descending Washington Center
Sun 19:22:18 35.7361 -79.0006 55° Northeast 321 369 8,800 -1,400 Descending Washington Center
Sun 19:22:35 35.7469 -78.9856 48° Northeast 321 369 8,700 -655 Descending Washington Center
Sun 19:23:13 35.7800 -78.9281 55° Northeast 306 352 8,200 -600 Descending Washington Center
Sun 19:23:35 35.7972 -78.9058 46° Northeast 308 354 8,100 -100 Descending Washington Center
Sun 19:24:13 35.8414 -78.8922 14° North 236 272 8,100  Level Washington Center
Sun 19:24:35 35.8625 -78.8853 15° North 257 296 8,100 -787 Level Washington Center
Sun 19:25:14 35.9128 -78.8722 12° North 237 273 7,300 -1,455 Descending Washington Center
Sun 19:26:14 35.9725 -78.8258 32° Northeast 255 293 5,700 -1,438 Descending Washington Center
Sun 19:27:15 36.0119 -78.7581 54° Northeast 243 280 4,400 -1,219 Descending Washington Center
Sun 19:28:22 35.9761 -78.6950 125° Southeast 213 245 3,100 -992 Descending Washington Center
Sun 19:29:22 35.9361 -78.7089 196° South 161 185 2,300 -893 Descending Washington Center
Sun 19:30:23 35.9103 -78.7414 226° Southwest 125 144 1,300 -787 Descending Washington Center
Sun 19:31:24 35.8842 -78.7736 225° Southwest 129 148 700 -590 Descending Washington Center
Sun 19:33:00 35.8667 -78.7833 191° South  Level FlightAware Approximate
Sun 19:40:00 35.8776 -78.7875 191° South  Level Estimated
Sun 19:41:00 35.8776 -78.7875 191° South  Level Estimated

Login

Don't have an account? Register now (free) for customized features, flight alerts, and more!